Middle Point, Northern Territory

9:50 AM CST on July 30, 2014 (GMT +0930)
Darwin International (YPDN) Elev 98 ft | 12.42 °S, 130.89 °E | Change Station

Current weather conditions updated 20 minutes ago

Clear
Clear
81 °F
Feels Like 82 °F
N
12
Wind Variable Wind from ESE

Today is forecast to be nearly the same temperature as yesterday.

Today
High -- | Low -- °F
--% Chance of Precip.
Yesterday
High -- | Low -- °F
Precip. -- in
7:04 AM 6:37 PM
Waxing Crescent, 8% visible
Pressure 30.01 in
Visibility -9999.0 miles
Clouds
Heat Index 82 °F
Dew Point 63 °F
Humidity 54%
Rainfall 0.00 in
Snow Depth Not available.
UV Not available.
Pollen Not available.
Air Quality Not available.
Flu Activity Not available.
METAR YPDN 300000Z 11010KT CAVOK 27/17 Q1016 RMK HAZE

More Conditions Fewer Conditions

Pressure 30.01 in
Visibility -9999.0 miles
Clouds
Heat Index 82 °F
Dew Point 63 °F
Humidity 54%
Rainfall 0.00 in
Snow Depth Not available.
UV Not available.
Pollen Not available.
Air Quality Not available.
Flu Activity Not available.
METAR YPDN 300000Z 11010KT CAVOK 27/17 Q1016 RMK HAZE

More Conditions Fewer Conditions

10-Day Weather Forecast

Almanac

Astronomy

Jul. 30, 2014 Rise Set
Actual Time 7:04 AM CST 6:37 PM CST
Civil Twilight 6:42 AM CST 6:59 PM CST
Nautical Twilight 6:16 AM CST 7:25 PM CST
Astronomical Twilight 5:51 AM CST 7:51 PM CST
Moon 8:59 AM CST 9:12 PM CST
Length of Visible Light 12h 17m
Length of Day
11h 32m
Tomorrow will be 0m 28s longer.
Waxing Crescent, 8% of the Moon is Illuminated
Jul 29
Waxing Crescent
Aug 3
First Quarter
Aug 10
Full
Aug 17
Last Quarter
Aug 25
New

Yesterday's Extremes

Country Highs Country Lows

Community

WunderPhotos

Upload Photos

1,738,924 photos uploaded!

Nearby

Snow Depth

Not available.

Earthquake Activity

City Distance Mag. Time & Date
No recent earthquake activity has been reported nearby.
Minimum magnitude displayed is 2.5.

Coastal Water Temperatures

Place Temperature
No Stations Reporting

Nearby Weather Stations

There are no personal weather stations in this area.